MMPN/UPN METAR and TAF weather

Enter ICAO airport designator
Station Type Date Time Source
MMPN METAR 2022/07/03 14:44 UTC NOAA

MMPN 031444Z 00000KT 10SM BKN065CB OVC090 22/17 A3020 RMK 8/33/ HZY BINOVC


Station Type Date Time Source
MMPN Decoded METAR 2022/07/03 14:44 UTC NOAA

Uruapan / Gen Rayon, Mexico (MMPN) 19-24N 102-02W
Jul 03, 2022 - 10:44 AM EDT / 2022.07.03 1444 UTC
Wind: Calm:0
Visibility: 10 mile(s):0
Sky conditions: overcast
Weather: Cumulonimbus clouds observed
Temperature: 71 F (22 C)
Dew Point: 62 F (17 C)
Relative Humidity: 73%
Pressure (altimeter): 30.2 in. Hg (1022 hPa)
ob: MMPN 031444Z 00000KT 10SM BKN065CB OVC090 22/17 A3020 RMK 8/33/ HZY BINOVC
cycle: 14

Station Type Date Time Source
MMPN TAF 2022/07/03 06:42 UTC NOAA

TAF MMPN 030440Z 0306/0406 00000KT P6SM VC RA SCT020CB BKN100
TEMPO 0306/0310 5SM TSRA BKN020CB
FM031400 00000KT 3SM BR HZ BKN015
FM031800 22010KT P6SM SCT030 BKN240
TEMPO 0321/0401 5SM TSRA BKN020CB

Example: see airport list